createdAt,value
2023-02-26T00:01:58.196Z,24.07
2023-02-26T00:04:27.182Z,25.00
2023-02-26T00:06:57.852Z,23.07
2023-02-26T00:09:29.119Z,24.53
2023-02-26T00:11:58.579Z,22.30
2023-02-26T00:14:28.121Z,28.73
2023-02-26T00:17:26.848Z,22.70
2023-02-26T00:19:56.346Z,28.90
2023-02-26T00:22:25.749Z,31.07
2023-02-26T00:24:54.715Z,30.10
2023-02-26T00:27:23.503Z,32.57
2023-02-26T00:29:53.074Z,31.43
2023-02-26T00:32:24.449Z,31.40
2023-02-26T00:34:54.278Z,27.83
2023-02-26T00:37:33.228Z,31.73
2023-02-26T00:40:26.789Z,29.43
2023-02-26T00:42:57.004Z,32.90
2023-02-26T00:45:27.746Z,32.60
2023-02-26T00:48:11.968Z,30.27
2023-02-26T00:50:54.720Z,32.73
2023-02-26T00:53:29.891Z,34.20
2023-02-26T00:55:58.747Z,27.90
2023-02-26T00:58:28.144Z,27.13
2023-02-26T01:00:56.996Z,29.10
2023-02-26T01:03:28.387Z,29.57
2023-02-26T01:05:57.596Z,34.53
2023-02-26T01:08:33.264Z,27.90
2023-02-26T01:11:02.570Z,27.97
2023-02-26T01:13:31.985Z,26.97
2023-02-26T01:16:06.543Z,29.30
2023-02-26T01:18:47.762Z,23.40
2023-02-26T01:21:21.862Z,31.53
2023-02-26T01:23:53.642Z,30.70
2023-02-26T01:26:26.722Z,31.27
2023-02-26T01:28:56.795Z,32.10
2023-02-26T01:31:36.317Z,33.30
2023-02-26T01:34:12.324Z,27.57
2023-02-26T01:36:45.396Z,29.47
2023-02-26T01:39:21.341Z,29.40
2023-02-26T01:41:52.568Z,30.90
2023-02-26T01:44:28.848Z,28.57
2023-02-26T01:47:12.092Z,29.33
2023-02-26T01:49:44.760Z,30.20
2023-02-26T01:53:01.289Z,29.80
2023-02-26T01:55:30.937Z,29.57
2023-02-26T01:58:02.725Z,34.73
2023-02-26T02:00:33.006Z,31.47
2023-02-26T02:03:02.406Z,35.00
2023-02-26T02:05:36.947Z,40.00
2023-02-26T02:08:06.197Z,33.47
2023-02-26T02:10:35.220Z,35.27
2023-02-26T02:13:12.273Z,33.10
2023-02-26T02:15:47.409Z,35.70
2023-02-26T02:18:24.515Z,30.37
2023-02-26T02:21:04.090Z,33.00
2023-02-26T02:23:38.708Z,31.53
2023-02-26T02:26:44.799Z,41.70
2023-02-26T02:29:55.993Z,49.60
2023-02-26T02:32:31.562Z,41.50
2023-02-26T02:35:08.199Z,55.73
2023-02-26T02:37:41.234Z,59.40
2023-02-26T02:40:13.792Z,77.20
2023-02-26T02:42:47.350Z,72.87
2023-02-26T02:45:21.877Z,73.00
2023-02-26T02:48:00.577Z,78.80
2023-02-26T02:50:34.420Z,77.37
2023-02-26T02:53:07.716Z,73.43
2023-02-26T02:55:41.667Z,93.90
2023-02-26T02:58:15.286Z,89.60
2023-02-26T03:00:49.442Z,84.90
2023-02-26T03:03:25.874Z,79.73
2023-02-26T03:05:54.983Z,77.77
2023-02-26T03:08:29.294Z,86.53
2023-02-26T03:10:58.326Z,84.10
2023-02-26T03:13:28.237Z,99.80
2023-02-26T03:16:27.560Z,109.97
2023-02-26T03:19:06.640Z,93.00
2023-02-26T03:21:45.231Z,95.03
2023-02-26T03:24:25.020Z,85.13
2023-02-26T03:26:58.761Z,90.53
2023-02-26T03:29:54.794Z,75.70
2023-02-26T03:32:27.609Z,74.67
2023-02-26T03:35:07.434Z,61.10
2023-02-26T03:37:40.105Z,80.27
2023-02-26T03:40:15.294Z,78.70
2023-02-26T03:42:49.679Z,77.03
2023-02-26T03:45:23.740Z,61.47
2023-02-26T03:47:55.371Z,82.97
2023-02-26T03:50:32.893Z,68.57
2023-02-26T03:53:24.673Z,67.23
2023-02-26T03:56:05.377Z,62.40
2023-02-26T03:58:53.690Z,56.30
2023-02-26T04:01:46.407Z,49.00
2023-02-26T04:04:20.832Z,51.67
2023-02-26T04:06:55.015Z,47.07
2023-02-26T04:09:43.464Z,55.83
2023-02-26T04:12:12.501Z,46.53
2023-02-26T04:14:45.671Z,43.17
2023-02-26T04:17:14.633Z,40.73
2023-02-26T04:19:43.557Z,37.47
2023-02-26T04:22:14.024Z,39.70
2023-02-26T04:24:43.077Z,36.00
2023-02-26T04:27:12.588Z,37.17
2023-02-26T04:29:41.646Z,45.73
2023-02-26T04:32:10.626Z,38.70
2023-02-26T04:34:40.319Z,42.83
2023-02-26T04:37:09.636Z,50.40
2023-02-26T04:39:40.833Z,47.67
2023-02-26T04:42:10.851Z,49.87
2023-02-26T04:44:39.847Z,53.53
2023-02-26T04:47:08.706Z,63.10
2023-02-26T04:49:39.219Z,43.37
2023-02-26T04:52:08.338Z,53.73
2023-02-26T04:54:40.926Z,65.17
2023-02-26T04:57:11.375Z,47.70
2023-02-26T04:59:40.507Z,49.50
2023-02-26T05:02:09.453Z,49.57
2023-02-26T05:04:42.186Z,39.97
2023-02-26T05:07:11.291Z,39.03
2023-02-26T05:09:41.711Z,43.17
2023-02-26T05:12:10.580Z,38.20
2023-02-26T05:14:39.576Z,36.37
2023-02-26T05:17:09.050Z,36.63
2023-02-26T05:19:37.902Z,38.50
2023-02-26T05:22:07.258Z,42.10
2023-02-26T05:24:36.510Z,33.33
2023-02-26T05:27:06.945Z,40.80
2023-02-26T05:29:41.233Z,39.33
2023-02-26T05:32:10.858Z,34.20
2023-02-26T05:34:39.941Z,30.23
2023-02-26T05:37:08.905Z,36.83
2023-02-26T05:39:37.908Z,37.23
2023-02-26T05:42:08.227Z,32.70
2023-02-26T05:44:37.191Z,47.30
2023-02-26T05:47:06.443Z,65.40
2023-02-26T05:49:35.428Z,36.03
2023-02-26T05:52:04.430Z,28.40
2023-02-26T05:54:33.413Z,32.73
2023-02-26T05:57:02.565Z,32.80
2023-02-26T05:59:33.364Z,35.40
2023-02-26T06:02:02.492Z,37.50
2023-02-26T06:04:31.329Z,44.53
2023-02-26T06:07:00.385Z,37.63
2023-02-26T06:09:29.728Z,37.20
2023-02-26T06:11:58.908Z,50.47
2023-02-26T06:14:27.975Z,57.53
2023-02-26T06:16:58.429Z,48.87
2023-02-26T06:19:27.681Z,56.90
2023-02-26T06:21:56.621Z,63.73
2023-02-26T06:24:25.644Z,49.70
2023-02-26T06:26:54.980Z,64.33
2023-02-26T06:29:24.057Z,48.00
2023-02-26T06:31:53.111Z,46.90
2023-02-26T06:34:24.063Z,45.33
2023-02-26T06:36:52.967Z,49.43
2023-02-26T06:39:22.010Z,51.17
2023-02-26T06:41:50.881Z,41.63
2023-02-26T06:44:19.897Z,56.63
2023-02-26T06:46:48.816Z,36.13
2023-02-26T06:49:17.733Z,43.60
2023-02-26T06:51:48.209Z,60.07
2023-02-26T06:54:17.967Z,72.67
2023-02-26T06:56:47.031Z,53.30
2023-02-26T06:59:16.002Z,70.37
2023-02-26T07:01:44.836Z,76.37
2023-02-26T07:04:13.975Z,74.03
2023-02-26T07:06:42.987Z,77.50
2023-02-26T07:09:13.640Z,74.00
2023-02-26T07:11:42.692Z,79.47
2023-02-26T07:14:11.598Z,76.20
2023-02-26T07:16:40.576Z,67.80
2023-02-26T07:19:09.483Z,72.53
2023-02-26T07:21:38.346Z,59.07
2023-02-26T07:24:08.360Z,63.87
2023-02-26T07:26:57.266Z,44.33
2023-02-26T07:29:26.161Z,47.03
2023-02-26T07:31:55.684Z,38.70
2023-02-26T07:34:24.595Z,39.20
2023-02-26T07:36:53.604Z,40.30
2023-02-26T07:39:27.213Z,36.50
2023-02-26T07:41:58.718Z,31.53
2023-02-26T07:44:31.299Z,31.20
2023-02-26T07:47:00.419Z,39.77
2023-02-26T07:49:29.295Z,32.23
2023-02-26T07:51:59.749Z,33.80
2023-02-26T07:54:33.849Z,28.63
2023-02-26T07:57:24.162Z,32.57
2023-02-26T07:59:53.015Z,29.57
2023-02-26T08:02:23.638Z,37.00
2023-02-26T08:04:52.839Z,34.33
2023-02-26T08:07:21.776Z,28.70
2023-02-26T08:09:51.555Z,33.90
2023-02-26T08:12:22.030Z,38.60
2023-02-26T08:14:50.975Z,26.30
2023-02-26T08:17:19.893Z,29.10
2023-02-26T08:19:48.807Z,31.60
2023-02-26T08:22:17.921Z,36.57
2023-02-26T08:24:46.798Z,38.87
2023-02-26T08:27:15.782Z,36.03
2023-02-26T08:29:50.403Z,28.70
2023-02-26T08:32:23.275Z,33.70
2023-02-26T08:34:52.333Z,30.53
2023-02-26T08:37:22.963Z,31.73
2023-02-26T08:39:52.038Z,26.40
2023-02-26T08:42:21.709Z,30.83
2023-02-26T08:44:52.412Z,24.90
2023-02-26T08:47:28.435Z,22.63
2023-02-26T08:49:59.123Z,25.60
2023-02-26T08:52:28.074Z,23.53
2023-02-26T08:55:03.569Z,32.77
2023-02-26T08:57:33.327Z,32.03
2023-02-26T09:00:05.168Z,28.30
2023-02-26T09:02:34.362Z,31.60
2023-02-26T09:05:03.308Z,44.17
2023-02-26T09:07:32.243Z,25.37
2023-02-26T09:10:01.606Z,34.50
2023-02-26T09:12:30.562Z,27.97
2023-02-26T09:15:00.679Z,46.10
2023-02-26T09:17:31.894Z,151.47
2023-02-26T09:20:00.949Z,90.90
2023-02-26T09:22:30.024Z,51.20
2023-02-26T09:27:46.410Z,65.70
2023-02-26T09:30:16.231Z,80.10
2023-02-26T09:32:46.589Z,40.63
2023-02-26T09:35:15.662Z,38.03
2023-02-26T09:37:44.716Z,32.93
2023-02-26T09:40:27.298Z,49.17
2023-02-26T09:43:07.335Z,29.80
2023-02-26T09:45:41.885Z,30.00
2023-02-26T09:48:17.720Z,29.97
2023-02-26T09:50:51.062Z,30.57
2023-02-26T09:53:24.171Z,29.60
2023-02-26T09:55:56.712Z,33.77
2023-02-26T09:59:10.539Z,31.73
2023-02-26T10:01:46.912Z,44.27
2023-02-26T10:04:26.287Z,35.10
2023-02-26T10:07:10.373Z,30.80
2023-02-26T10:09:56.384Z,23.13
2023-02-26T10:12:27.730Z,23.27
2023-02-26T10:15:01.804Z,25.00
2023-02-26T10:17:37.071Z,36.63
2023-02-26T10:20:16.137Z,21.97
2023-02-26T10:22:50.409Z,22.87
2023-02-26T10:25:23.089Z,18.70
2023-02-26T10:28:30.448Z,23.97
2023-02-26T10:31:03.763Z,17.63
2023-02-26T10:33:42.211Z,22.87
2023-02-26T10:36:20.500Z,19.33
2023-02-26T10:38:53.342Z,22.10
2023-02-26T10:41:28.215Z,22.50
2023-02-26T10:44:06.517Z,20.63
2023-02-26T10:46:44.816Z,25.37
2023-02-26T10:49:35.182Z,16.13
2023-02-26T10:52:15.138Z,23.70
2023-02-26T10:54:53.972Z,17.83
2023-02-26T10:57:32.583Z,17.23
2023-02-26T11:00:01.774Z,15.40
2023-02-26T11:02:39.233Z,15.40
2023-02-26T11:05:15.190Z,17.70
2023-02-26T11:07:48.983Z,22.20
2023-02-26T11:10:43.759Z,24.60
2023-02-26T11:13:13.225Z,25.03
2023-02-26T11:15:42.822Z,26.60
2023-02-26T11:18:17.920Z,32.43
2023-02-26T11:20:48.370Z,25.10
2023-02-26T11:23:22.608Z,21.20
2023-02-26T11:25:56.976Z,24.37
2023-02-26T11:28:32.655Z,33.97
2023-02-26T11:31:06.974Z,21.50
2023-02-26T11:33:39.169Z,43.43
2023-02-26T11:36:13.840Z,34.57
2023-02-26T11:38:47.291Z,19.50
2023-02-26T11:41:18.349Z,28.50
2023-02-26T11:43:50.273Z,21.23
2023-02-26T11:46:19.483Z,26.70
2023-02-26T11:48:49.797Z,26.83
2023-02-26T11:51:26.511Z,28.87
2023-02-26T11:54:01.379Z,36.57
2023-02-26T11:56:34.929Z,26.57
2023-02-26T11:59:18.311Z,24.00
2023-02-26T12:02:14.015Z,23.73
2023-02-26T12:04:47.853Z,21.03
2023-02-26T12:07:18.273Z,28.67
2023-02-26T12:09:50.649Z,24.97
2023-02-26T12:12:36.583Z,22.80
2023-02-26T12:15:16.903Z,23.10
2023-02-26T12:18:04.781Z,35.17
2023-02-26T12:20:40.507Z,23.83
2023-02-26T12:23:26.254Z,24.17
2023-02-26T12:26:24.092Z,30.33
2023-02-26T12:29:24.244Z,46.80
2023-02-26T12:32:17.029Z,24.90
2023-02-26T12:35:22.612Z,19.33
2023-02-26T12:38:14.938Z,27.13
2023-02-26T12:41:12.048Z,27.63
2023-02-26T12:43:47.568Z,28.77
2023-02-26T12:46:33.325Z,34.70
2023-02-26T12:49:33.605Z,55.43
2023-02-26T12:52:17.936Z,43.73
2023-02-26T12:55:04.637Z,21.13
2023-02-26T12:57:53.120Z,25.47
2023-02-26T13:00:37.727Z,60.47
2023-02-26T13:03:37.127Z,53.33
2023-02-26T13:06:34.432Z,37.83
2023-02-26T13:09:09.658Z,101.50
2023-02-26T13:11:56.542Z,368.47
2023-02-26T13:14:37.796Z,85.67
2023-02-26T13:17:15.284Z,25.80
2023-02-26T13:20:12.013Z,20.10
2023-02-26T13:22:46.238Z,19.90
2023-02-26T13:25:25.449Z,28.13
2023-02-26T13:27:58.593Z,22.97
2023-02-26T13:30:34.879Z,20.63
2023-02-26T13:33:04.637Z,40.90
2023-02-26T13:35:37.351Z,22.07
2023-02-26T13:38:15.099Z,23.70
2023-02-26T13:40:53.592Z,18.70
2023-02-26T13:43:36.546Z,19.47
2023-02-26T13:46:21.186Z,55.90
2023-02-26T13:48:58.085Z,21.37
2023-02-26T13:51:35.635Z,20.20
2023-02-26T13:54:10.235Z,21.60
2023-02-26T13:56:57.385Z,50.50
2023-02-26T13:59:38.962Z,48.70
2023-02-26T14:02:46.157Z,28.20
2023-02-26T14:06:02.631Z,40.23
2023-02-26T14:08:53.872Z,165.40
2023-02-26T14:11:47.892Z,81.70
2023-02-26T14:14:42.039Z,61.63
2023-02-26T14:17:41.888Z,127.37
2023-02-26T14:20:31.092Z,66.00
2023-02-26T14:23:35.550Z,134.77
2023-02-26T14:26:12.720Z,144.77
2023-02-26T14:28:47.362Z,107.30
2023-02-26T14:31:22.360Z,39.90
2023-02-26T14:34:16.932Z,23.37
2023-02-26T14:36:50.818Z,111.80
2023-02-26T14:39:33.594Z,86.27
2023-02-26T14:42:07.026Z,33.60
2023-02-26T14:44:40.876Z,22.50
2023-02-26T14:47:11.166Z,24.67
2023-02-26T14:49:44.332Z,48.97
2023-02-26T14:52:37.355Z,21.10
2023-02-26T14:55:50.943Z,33.13
2023-02-26T14:58:36.436Z,34.33
2023-02-26T15:01:21.370Z,73.37
2023-02-26T15:04:14.136Z,58.37
2023-02-26T15:07:10.811Z,95.37
2023-02-26T15:09:51.418Z,82.67
2023-02-26T15:12:35.183Z,70.67
2023-02-26T15:15:34.798Z,58.87
2023-02-26T15:18:37.264Z,50.17
2023-02-26T15:21:15.636Z,55.00
2023-02-26T15:23:49.187Z,56.03
2023-02-26T15:26:23.433Z,86.90
2023-02-26T15:28:53.566Z,81.87
2023-02-26T15:31:30.188Z,81.93
2023-02-26T15:34:00.126Z,116.20
2023-02-26T15:36:31.533Z,89.20
2023-02-26T15:39:04.315Z,100.83
2023-02-26T15:41:34.289Z,100.10
2023-02-26T15:44:06.547Z,112.80
2023-02-26T15:46:39.864Z,115.80
2023-02-26T15:49:12.123Z,108.63
2023-02-26T15:51:42.985Z,119.10
2023-02-26T15:54:36.972Z,142.40
2023-02-26T15:57:06.850Z,126.70
2023-02-26T15:59:41.878Z,150.23
2023-02-26T16:02:14.473Z,42.97
2023-02-26T16:04:44.684Z,116.80
2023-02-26T16:07:14.622Z,65.43
2023-02-26T16:09:48.778Z,80.37
2023-02-26T16:12:20.781Z,83.70
2023-02-26T16:14:53.590Z,98.13
2023-02-26T16:17:29.914Z,83.87
2023-02-26T16:20:02.029Z,97.37
2023-02-26T16:22:37.576Z,74.57
2023-02-26T16:25:15.547Z,57.70
2023-02-26T16:27:46.377Z,54.20
2023-02-26T16:30:20.453Z,66.73
2023-02-26T16:32:52.732Z,43.97
2023-02-26T16:35:26.667Z,57.20
2023-02-26T16:38:20.710Z,60.20
2023-02-26T16:40:59.333Z,77.27
2023-02-26T16:43:51.894Z,67.97
2023-02-26T16:46:28.009Z,78.67
2023-02-26T16:49:00.037Z,145.00
2023-02-26T16:51:32.978Z,112.93
2023-02-26T16:54:04.344Z,146.63
2023-02-26T16:56:37.630Z,92.60
2023-02-26T16:59:25.171Z,65.13
2023-02-26T17:01:58.150Z,78.07
2023-02-26T17:04:30.244Z,64.50
2023-02-26T17:07:00.029Z,68.07
2023-02-26T17:09:39.112Z,63.80
2023-02-26T17:12:19.990Z,56.10
2023-02-26T17:14:57.881Z,57.93
2023-02-26T17:17:28.059Z,52.80
2023-02-26T17:19:56.969Z,50.53
2023-02-26T17:22:28.692Z,56.27
2023-02-26T17:25:06.012Z,79.57
2023-02-26T17:27:47.030Z,79.07
2023-02-26T17:30:22.835Z,98.10
2023-02-26T17:32:55.174Z,86.33
2023-02-26T17:35:33.316Z,80.87
2023-02-26T17:38:08.101Z,79.97
2023-02-26T17:40:53.130Z,78.67
2023-02-26T17:43:35.573Z,62.17
2023-02-26T17:46:15.097Z,38.97
2023-02-26T17:48:45.815Z,57.00
2023-02-26T17:51:17.746Z,49.80
2023-02-26T17:53:48.915Z,47.57
2023-02-26T17:56:28.142Z,56.77
2023-02-26T17:59:03.329Z,97.70
2023-02-26T18:01:34.209Z,78.87
2023-02-26T18:04:05.000Z,74.60
2023-02-26T18:06:36.446Z,63.33
2023-02-26T18:09:06.698Z,88.53
2023-02-26T18:11:36.099Z,79.83
2023-02-26T18:14:14.450Z,93.27
2023-02-26T18:16:47.042Z,168.73
2023-02-26T18:19:16.606Z,158.83
2023-02-26T18:21:45.423Z,160.73
2023-02-26T18:24:14.406Z,169.23
2023-02-26T18:26:43.833Z,355.13
2023-02-26T18:29:14.500Z,161.83
2023-02-26T18:31:43.699Z,149.67
2023-02-26T18:34:13.474Z,211.70
2023-02-26T18:36:42.557Z,201.03
2023-02-26T18:39:16.573Z,244.67
2023-02-26T18:41:45.712Z,273.33
2023-02-26T18:44:16.086Z,275.93
2023-02-26T18:46:45.351Z,476.80
2023-02-26T18:49:20.218Z,149.00
2023-02-26T18:51:49.414Z,132.37
2023-02-26T18:54:18.598Z,147.57
2023-02-26T18:56:51.237Z,142.87
2023-02-26T18:59:26.220Z,103.47
2023-02-26T19:01:55.540Z,110.63
2023-02-26T19:04:24.857Z,116.53
2023-02-26T19:06:54.437Z,106.87
2023-02-26T19:09:31.904Z,114.47
2023-02-26T19:12:02.249Z,100.27
2023-02-26T19:14:32.701Z,91.87
2023-02-26T19:17:02.646Z,80.67
2023-02-26T19:19:31.734Z,86.07
2023-02-26T19:22:01.402Z,73.37
2023-02-26T19:24:30.375Z,81.93
2023-02-26T19:26:59.303Z,108.87
2023-02-26T19:29:28.415Z,145.97
2023-02-26T19:31:58.875Z,152.63
2023-02-26T19:34:28.196Z,135.40
2023-02-26T19:36:57.254Z,131.50
2023-02-26T19:39:26.977Z,136.57
2023-02-26T19:41:56.708Z,137.20
2023-02-26T19:44:27.690Z,131.73
2023-02-26T19:46:58.565Z,146.10
2023-02-26T19:49:27.864Z,164.33
2023-02-26T19:51:56.850Z,200.47
2023-02-26T19:54:25.748Z,200.10
2023-02-26T19:56:55.239Z,179.03
2023-02-26T19:59:24.141Z,171.53
2023-02-26T20:01:53.098Z,178.33
2023-02-26T20:04:42.292Z,168.10
2023-02-26T20:07:11.213Z,150.83
2023-02-26T20:09:40.093Z,128.73
2023-02-26T20:12:09.773Z,137.00
2023-02-26T20:14:38.711Z,119.50
2023-02-26T20:17:07.702Z,131.13
2023-02-26T20:19:36.700Z,102.00
2023-02-26T20:22:06.984Z,114.20
2023-02-26T20:24:36.567Z,127.00
2023-02-26T20:27:09.084Z,160.73
2023-02-26T20:29:44.519Z,178.67
2023-02-26T20:32:13.817Z,170.50
2023-02-26T20:34:42.917Z,171.93
2023-02-26T20:37:13.426Z,187.40
2023-02-26T20:39:42.439Z,159.97
2023-02-26T20:42:11.498Z,153.77
2023-02-26T20:44:40.583Z,142.67
2023-02-26T20:47:09.445Z,137.53
2023-02-26T20:49:38.320Z,125.27
2023-02-26T20:52:07.202Z,110.40
2023-02-26T20:54:37.824Z,146.40
2023-02-26T20:57:07.054Z,155.63
2023-02-26T20:59:35.935Z,197.83
2023-02-26T21:02:04.958Z,179.27
2023-02-26T21:04:34.527Z,189.70
2023-02-26T21:07:21.990Z,190.57
2023-02-26T21:09:54.131Z,149.77
2023-02-26T21:12:34.662Z,144.63
2023-02-26T21:15:05.376Z,125.80
2023-02-26T21:17:53.294Z,120.53
2023-02-26T21:20:23.002Z,130.80
2023-02-26T21:23:10.269Z,107.60
2023-02-26T21:25:41.940Z,122.97
2023-02-26T21:28:11.795Z,104.43
2023-02-26T21:30:40.668Z,101.00
2023-02-26T21:33:09.572Z,128.93
2023-02-26T21:35:38.622Z,107.23
2023-02-26T21:38:07.457Z,64.70
2023-02-26T21:40:37.876Z,75.47
2023-02-26T21:43:09.222Z,87.77
2023-02-26T21:45:38.560Z,70.37
2023-02-26T21:48:07.835Z,69.27
2023-02-26T21:50:37.005Z,118.20
2023-02-26T21:53:06.476Z,82.80
2023-02-26T21:55:35.354Z,77.70
2023-02-26T21:58:04.184Z,74.20
2023-02-26T22:00:34.591Z,78.20
2023-02-26T22:03:09.012Z,115.33
2023-02-26T22:05:37.896Z,88.80
2023-02-26T22:08:06.935Z,84.30
2023-02-26T22:10:35.897Z,77.47
2023-02-26T22:13:04.895Z,50.37
2023-02-26T22:15:35.234Z,36.70
2023-02-26T22:18:11.837Z,36.30
2023-02-26T22:20:40.820Z,34.10
2023-02-26T22:23:09.810Z,56.23
2023-02-26T22:25:38.737Z,48.87
2023-02-26T22:28:07.885Z,42.27
2023-02-26T22:30:38.443Z,40.47
2023-02-26T22:33:07.382Z,40.13
2023-02-26T22:35:36.491Z,56.07
2023-02-26T22:38:06.909Z,33.27
2023-02-26T22:40:35.845Z,21.60
2023-02-26T22:43:04.895Z,22.33
2023-02-26T22:45:33.784Z,25.87
2023-02-26T22:48:04.904Z,25.03
2023-02-26T22:50:34.151Z,20.93
2023-02-26T22:53:03.758Z,25.37
2023-02-26T22:55:32.586Z,27.67
2023-02-26T22:58:02.093Z,23.67
2023-02-26T23:00:30.956Z,19.37
2023-02-26T23:02:59.771Z,23.17
2023-02-26T23:05:30.257Z,19.93
2023-02-26T23:07:59.177Z,26.43
2023-02-26T23:10:27.976Z,25.83
2023-02-26T23:13:00.277Z,23.37
2023-02-26T23:15:29.196Z,18.27
2023-02-26T23:17:58.064Z,24.10
2023-02-26T23:20:26.948Z,20.70
2023-02-26T23:22:57.248Z,19.03
2023-02-26T23:25:26.851Z,24.63
2023-02-26T23:27:55.707Z,21.17
2023-02-26T23:30:24.604Z,33.60
2023-02-26T23:32:55.155Z,35.70
2023-02-26T23:35:27.779Z,17.13
2023-02-26T23:37:58.491Z,19.47
2023-02-26T23:40:27.900Z,16.93
2023-02-26T23:42:56.746Z,23.63
2023-02-26T23:45:26.246Z,28.90
2023-02-26T23:47:55.165Z,23.27
2023-02-26T23:50:24.405Z,16.30
2023-02-26T23:52:53.553Z,23.30
2023-02-26T23:55:23.881Z,21.17
2023-02-26T23:57:52.876Z,20.00
